sensor_id;sensor_type;location;lat;lon;timestamp;pressure;altitude;pressure_sealevel;temperature;humidity
80174;BME280;69497;41.708;44.804;2023-04-25T00:00:13;96624.38;;;12.47;67.67
80174;BME280;69497;41.708;44.804;2023-04-25T00:02:39;96616.31;;;12.40;67.69
80174;BME280;69497;41.708;44.804;2023-04-25T00:05:05;96614.03;;;12.37;67.54
80174;BME280;69497;41.708;44.804;2023-04-25T00:07:31;96609.25;;;12.33;68.17
80174;BME280;69497;41.708;44.804;2023-04-25T00:09:58;96615.53;;;12.27;68.01
80174;BME280;69497;41.708;44.804;2023-04-25T00:12:24;96615.50;;;12.33;68.11
80174;BME280;69497;41.708;44.804;2023-04-25T00:14:50;96612.16;;;12.31;68.04
80174;BME280;69497;41.708;44.804;2023-04-25T00:17:16;96597.78;;;12.31;68.52
80174;BME280;69497;41.708;44.804;2023-04-25T00:19:42;96593.84;;;12.27;68.88
80174;BME280;69497;41.708;44.804;2023-04-25T00:22:10;96587.81;;;12.25;68.54
80174;BME280;69497;41.708;44.804;2023-04-25T00:24:36;96594.50;;;12.22;68.91
80174;BME280;69497;41.708;44.804;2023-04-25T00:27:02;96602.22;;;12.25;68.58
80174;BME280;69497;41.708;44.804;2023-04-25T00:29:28;96594.31;;;12.17;68.71
80174;BME280;69497;41.708;44.804;2023-04-25T00:31:54;96595.19;;;12.11;68.56
80174;BME280;69497;41.708;44.804;2023-04-25T00:34:20;96593.50;;;12.10;68.93
80174;BME280;69497;41.708;44.804;2023-04-25T00:36:46;96582.88;;;12.09;68.56
80174;BME280;69497;41.708;44.804;2023-04-25T00:39:12;96583.09;;;12.07;68.90
80174;BME280;69497;41.708;44.804;2023-04-25T00:41:38;96582.69;;;12.04;69.13
80174;BME280;69497;41.708;44.804;2023-04-25T00:44:05;96577.31;;;11.97;69.23
80174;BME280;69497;41.708;44.804;2023-04-25T00:46:32;96578.59;;;11.95;69.60
80174;BME280;69497;41.708;44.804;2023-04-25T00:48:59;96575.00;;;12.01;69.21
80174;BME280;69497;41.708;44.804;2023-04-25T00:51:26;96579.59;;;12.00;69.33
80174;BME280;69497;41.708;44.804;2023-04-25T00:53:53;96573.56;;;11.98;69.03
80174;BME280;69497;41.708;44.804;2023-04-25T00:56:20;96591.53;;;11.93;69.89
80174;BME280;69497;41.708;44.804;2023-04-25T00:58:47;96594.44;;;11.91;69.10
80174;BME280;69497;41.708;44.804;2023-04-25T01:01:14;96592.56;;;11.92;69.18
80174;BME280;69497;41.708;44.804;2023-04-25T01:03:40;96599.47;;;11.88;69.23
80174;BME280;69497;41.708;44.804;2023-04-25T01:06:10;96603.44;;;11.78;69.54
80174;BME280;69497;41.708;44.804;2023-04-25T01:08:37;96605.28;;;11.84;69.74
80174;BME280;69497;41.708;44.804;2023-04-25T01:11:04;96602.78;;;11.83;69.72
80174;BME280;69497;41.708;44.804;2023-04-25T01:13:32;96601.38;;;11.80;69.77
80174;BME280;69497;41.708;44.804;2023-04-25T01:15:59;96602.16;;;11.81;69.67
80174;BME280;69497;41.708;44.804;2023-04-25T01:18:25;96610.72;;;11.78;69.60
80174;BME280;69497;41.708;44.804;2023-04-25T01:20:52;96607.59;;;11.81;69.89
80174;BME280;69497;41.708;44.804;2023-04-25T01:23:21;96607.19;;;11.84;69.83
80174;BME280;69497;41.708;44.804;2023-04-25T01:25:48;96604.28;;;11.79;69.62
80174;BME280;69497;41.708;44.804;2023-04-25T01:28:16;96602.38;;;11.79;69.69
80174;BME280;69497;41.708;44.804;2023-04-25T01:30:42;96583.66;;;11.78;69.79
80174;BME280;69497;41.708;44.804;2023-04-25T01:33:09;96612.19;;;11.80;69.93
80174;BME280;69497;41.708;44.804;2023-04-25T01:35:35;96614.91;;;11.80;69.35
80174;BME280;69497;41.708;44.804;2023-04-25T01:38:01;96610.75;;;11.71;69.95
80174;BME280;69497;41.708;44.804;2023-04-25T01:40:27;96607.41;;;11.76;69.83
80174;BME280;69497;41.708;44.804;2023-04-25T01:42:54;96607.00;;;11.72;70.00
80174;BME280;69497;41.708;44.804;2023-04-25T01:45:20;96600.53;;;11.60;70.00
80174;BME280;69497;41.708;44.804;2023-04-25T01:47:47;96603.25;;;11.73;69.89
80174;BME280;69497;41.708;44.804;2023-04-25T01:50:17;96593.69;;;11.64;69.93
80174;BME280;69497;41.708;44.804;2023-04-25T01:52:43;96606.00;;;11.67;70.22
80174;BME280;69497;41.708;44.804;2023-04-25T01:55:10;96597.25;;;11.65;70.41
80174;BME280;69497;41.708;44.804;2023-04-25T01:57:41;96603.06;;;11.62;70.38
80174;BME280;69497;41.708;44.804;2023-04-25T02:00:08;96614.69;;;11.62;70.37
80174;BME280;69497;41.708;44.804;2023-04-25T02:02:40;96609.94;;;11.64;70.10
80174;BME280;69497;41.708;44.804;2023-04-25T02:05:19;96606.22;;;11.65;70.27
80174;BME280;69497;41.708;44.804;2023-04-25T02:07:47;96603.47;;;11.52;70.28
80174;BME280;69497;41.708;44.804;2023-04-25T02:10:13;96599.75;;;11.47;70.65
80174;BME280;69497;41.708;44.804;2023-04-25T02:13:02;96608.50;;;11.49;70.43
80174;BME280;69497;41.708;44.804;2023-04-25T02:15:48;96609.72;;;11.59;70.51
80174;BME280;69497;41.708;44.804;2023-04-25T02:18:17;96608.69;;;11.54;70.46
80174;BME280;69497;41.708;44.804;2023-04-25T02:20:43;96622.44;;;11.52;70.49
80174;BME280;69497;41.708;44.804;2023-04-25T02:23:10;96619.09;;;11.50;70.53
80174;BME280;69497;41.708;44.804;2023-04-25T02:25:36;96626.19;;;11.51;70.00
80174;BME280;69497;41.708;44.804;2023-04-25T02:28:02;96635.34;;;11.57;70.28
80174;BME280;69497;41.708;44.804;2023-04-25T02:30:29;96629.31;;;11.48;70.76
80174;BME280;69497;41.708;44.804;2023-04-25T02:32:56;96638.06;;;11.44;70.30
80174;BME280;69497;41.708;44.804;2023-04-25T02:35:22;96628.50;;;11.41;70.78
80174;BME280;69497;41.708;44.804;2023-04-25T02:37:48;96632.44;;;11.45;70.27
80174;BME280;69497;41.708;44.804;2023-04-25T02:40:14;96645.34;;;11.43;70.83
80174;BME280;69497;41.708;44.804;2023-04-25T02:42:40;96635.78;;;11.41;70.80
80174;BME280;69497;41.708;44.804;2023-04-25T02:45:06;96650.38;;;11.46;70.57
80174;BME280;69497;41.708;44.804;2023-04-25T02:47:33;96639.94;;;11.43;70.69
80174;BME280;69497;41.708;44.804;2023-04-25T02:49:59;96652.41;;;11.57;70.62
80174;BME280;69497;41.708;44.804;2023-04-25T02:52:25;96645.13;;;11.58;70.71
80174;BME280;69497;41.708;44.804;2023-04-25T02:54:59;96644.91;;;11.72;70.37
80174;BME280;69497;41.708;44.804;2023-04-25T02:57:26;96644.50;;;11.75;70.06
80174;BME280;69497;41.708;44.804;2023-04-25T02:59:52;96653.03;;;11.79;69.86
80174;BME280;69497;41.708;44.804;2023-04-25T03:02:18;96651.75;;;11.81;69.56
80174;BME280;69497;41.708;44.804;2023-04-25T03:04:44;96645.94;;;11.78;69.93
80174;BME280;69497;41.708;44.804;2023-04-25T03:07:10;96653.44;;;11.82;69.58
80174;BME280;69497;41.708;44.804;2023-04-25T03:09:36;96651.31;;;11.98;69.56
80174;BME280;69497;41.708;44.804;2023-04-25T03:12:02;96641.31;;;11.92;69.33
80174;BME280;69497;41.708;44.804;2023-04-25T03:14:28;96644.63;;;12.00;69.25
80174;BME280;69497;41.708;44.804;2023-04-25T03:16:54;96638.97;;;12.02;68.81
80174;BME280;69497;41.708;44.804;2023-04-25T03:19:20;96645.22;;;12.15;68.78
80174;BME280;69497;41.708;44.804;2023-04-25T03:21:47;96637.66;;;12.17;68.61
80174;BME280;69497;41.708;44.804;2023-04-25T03:24:14;96641.41;;;12.23;68.35
80174;BME280;69497;41.708;44.804;2023-04-25T03:26:40;96636.16;;;12.28;68.22
80174;BME280;69497;41.708;44.804;2023-04-25T03:29:08;96622.78;;;12.33;68.15
80174;BME280;69497;41.708;44.804;2023-04-25T03:31:34;96638.44;;;12.37;67.44
80174;BME280;69497;41.708;44.804;2023-04-25T03:34:00;96637.38;;;12.38;67.60
80174;BME280;69497;41.708;44.804;2023-04-25T03:36:27;96652.13;;;12.49;67.45
80174;BME280;69497;41.708;44.804;2023-04-25T03:38:53;96647.31;;;12.51;67.12
80174;BME280;69497;41.708;44.804;2023-04-25T03:41:20;96635.63;;;12.50;66.91
80174;BME280;69497;41.708;44.804;2023-04-25T03:43:51;96631.84;;;12.58;66.76
80174;BME280;69497;41.708;44.804;2023-04-25T03:46:17;96625.31;;;12.65;66.49
80174;BME280;69497;41.708;44.804;2023-04-25T03:48:44;96622.22;;;12.62;66.88
80174;BME280;69497;41.708;44.804;2023-04-25T03:51:16;96616.94;;;12.67;66.60
80174;BME280;69497;41.708;44.804;2023-04-25T03:53:44;96622.81;;;12.64;66.86
80174;BME280;69497;41.708;44.804;2023-04-25T03:56:19;96614.06;;;12.62;66.73
80174;BME280;69497;41.708;44.804;2023-04-25T03:58:50;96621.53;;;12.73;66.38
80174;BME280;69497;41.708;44.804;2023-04-25T04:01:18;96620.16;;;12.88;66.13
80174;BME280;69497;41.708;44.804;2023-04-25T04:03:45;96616.81;;;12.86;66.19
80174;BME280;69497;41.708;44.804;2023-04-25T04:06:11;96620.56;;;12.92;65.81
80174;BME280;69497;41.708;44.804;2023-04-25T04:08:40;96627.19;;;13.03;65.97
80174;BME280;69497;41.708;44.804;2023-04-25T04:11:07;96625.63;;;13.13;65.01
80174;BME280;69497;41.708;44.804;2023-04-25T04:13:33;96617.63;;;13.18;64.60
80174;BME280;69497;41.708;44.804;2023-04-25T04:16:01;96619.53;;;13.18;64.35
80174;BME280;69497;41.708;44.804;2023-04-25T04:18:27;96605.28;;;13.22;64.47
80174;BME280;69497;41.708;44.804;2023-04-25T04:20:55;96605.59;;;13.32;63.84
80174;BME280;69497;41.708;44.804;2023-04-25T04:23:24;96599.78;;;13.29;64.26
80174;BME280;69497;41.708;44.804;2023-04-25T04:25:50;96604.72;;;13.38;63.83
80174;BME280;69497;41.708;44.804;2023-04-25T04:28:27;96607.69;;;13.55;63.63
80174;BME280;69497;41.708;44.804;2023-04-25T04:31:17;96595.09;;;13.60;63.64
80174;BME280;69497;41.708;44.804;2023-04-25T04:33:46;96593.38;;;13.66;63.37
80174;BME280;69497;41.708;44.804;2023-04-25T04:36:13;96593.69;;;13.76;62.77
80174;BME280;69497;41.708;44.804;2023-04-25T04:38:40;96591.94;;;13.81;62.85
80174;BME280;69497;41.708;44.804;2023-04-25T04:41:12;96594.72;;;13.93;62.58
80174;BME280;69497;41.708;44.804;2023-04-25T04:43:53;96585.28;;;13.95;62.29
80174;BME280;69497;41.708;44.804;2023-04-25T04:46:40;96594.56;;;14.06;61.73
80174;BME280;69497;41.708;44.804;2023-04-25T04:49:30;96574.13;;;14.03;61.48
80174;BME280;69497;41.708;44.804;2023-04-25T04:52:29;96575.94;;;14.28;61.11
80174;BME280;69497;41.708;44.804;2023-04-25T04:55:21;96569.22;;;14.42;60.85
80174;BME280;69497;41.708;44.804;2023-04-25T04:58:01;96564.88;;;14.52;60.24
80174;BME280;69497;41.708;44.804;2023-04-25T05:00:46;96561.28;;;14.70;59.71
80174;BME280;69497;41.708;44.804;2023-04-25T05:03:31;96569.22;;;14.83;59.42
80174;BME280;69497;41.708;44.804;2023-04-25T05:06:06;96567.09;;;14.85;58.87
80174;BME280;69497;41.708;44.804;2023-04-25T05:08:52;96570.09;;;14.95;58.38
80174;BME280;69497;41.708;44.804;2023-04-25T05:11:42;96545.22;;;14.91;58.46
80174;BME280;69497;41.708;44.804;2023-04-25T05:14:37;96563.97;;;15.22;57.86
80174;BME280;69497;41.708;44.804;2023-04-25T05:17:26;96563.00;;;15.17;57.66
80174;BME280;69497;41.708;44.804;2023-04-25T05:19:58;96568.72;;;15.27;57.84
80174;BME280;69497;41.708;44.804;2023-04-25T05:22:49;96563.91;;;15.41;57.41
80174;BME280;69497;41.708;44.804;2023-04-25T05:25:37;96566.13;;;15.55;56.92
80174;BME280;69497;41.708;44.804;2023-04-25T05:28:28;96576.66;;;15.75;56.33
80174;BME280;69497;41.708;44.804;2023-04-25T05:31:17;96571.19;;;15.86;56.35
80174;BME280;69497;41.708;44.804;2023-04-25T05:33:54;96575.06;;;16.02;55.07
80174;BME280;69497;41.708;44.804;2023-04-25T05:36:22;96563.06;;;16.03;54.92
80174;BME280;69497;41.708;44.804;2023-04-25T05:38:48;96572.66;;;16.17;54.33
80174;BME280;69497;41.708;44.804;2023-04-25T05:41:20;96575.03;;;16.13;53.94
80174;BME280;69497;41.708;44.804;2023-04-25T05:43:53;96579.88;;;16.23;54.53
80174;BME280;69497;41.708;44.804;2023-04-25T05:46:24;96569.88;;;16.28;54.01
80174;BME280;69497;41.708;44.804;2023-04-25T05:49:08;96574.34;;;16.46;53.24
80174;BME280;69497;41.708;44.804;2023-04-25T05:51:56;96565.88;;;16.59;52.96
80174;BME280;69497;41.708;44.804;2023-04-25T05:54:42;96569.84;;;16.68;52.79
80174;BME280;69497;41.708;44.804;2023-04-25T05:57:08;96579.91;;;16.79;52.42
80174;BME280;69497;41.708;44.804;2023-04-25T05:59:34;96579.41;;;16.99;52.29
80174;BME280;69497;41.708;44.804;2023-04-25T06:02:01;96584.38;;;16.85;52.09
80174;BME280;69497;41.708;44.804;2023-04-25T06:04:28;96581.19;;;17.05;51.99
80174;BME280;69497;41.708;44.804;2023-04-25T06:06:54;96584.75;;;17.22;51.32
80174;BME280;69497;41.708;44.804;2023-04-25T06:09:21;96579.59;;;17.42;50.59
80174;BME280;69497;41.708;44.804;2023-04-25T06:11:47;96584.41;;;17.68;49.54
80174;BME280;69497;41.708;44.804;2023-04-25T06:14:13;96576.59;;;17.77;49.28
80174;BME280;69497;41.708;44.804;2023-04-25T06:16:45;96569.00;;;18.00;48.54
80174;BME280;69497;41.708;44.804;2023-04-25T06:19:11;96567.75;;;18.08;47.90
80174;BME280;69497;41.708;44.804;2023-04-25T06:21:37;96566.66;;;18.30;47.54
80174;BME280;69497;41.708;44.804;2023-04-25T06:24:03;96573.88;;;18.58;47.11
80174;BME280;69497;41.708;44.804;2023-04-25T06:26:29;96557.44;;;18.58;46.68
80174;BME280;69497;41.708;44.804;2023-04-25T06:28:55;96564.25;;;18.55;46.70
80174;BME280;69497;41.708;44.804;2023-04-25T06:31:22;96557.91;;;18.77;46.50
80174;BME280;69497;41.708;44.804;2023-04-25T06:33:49;96547.13;;;18.97;45.82
80174;BME280;69497;41.708;44.804;2023-04-25T06:36:15;96553.66;;;19.22;45.22
80174;BME280;69497;41.708;44.804;2023-04-25T06:38:43;96558.75;;;19.09;44.99
80174;BME280;69497;41.708;44.804;2023-04-25T06:41:10;96565.38;;;19.13;45.26
80174;BME280;69497;41.708;44.804;2023-04-25T06:43:36;96555.34;;;19.60;44.34
80174;BME280;69497;41.708;44.804;2023-04-25T06:46:16;96546.97;;;19.81;43.84
80174;BME280;69497;41.708;44.804;2023-04-25T06:48:46;96570.44;;;20.04;43.40
80174;BME280;69497;41.708;44.804;2023-04-25T06:51:12;96567.22;;;20.12;43.28
80174;BME280;69497;41.708;44.804;2023-04-25T06:53:40;96562.47;;;20.54;42.78
80174;BME280;69497;41.708;44.804;2023-04-25T06:56:09;96561.06;;;20.52;42.63
80174;BME280;69497;41.708;44.804;2023-04-25T06:58:56;96558.13;;;20.78;41.62
80174;BME280;69497;41.708;44.804;2023-04-25T07:01:33;96558.44;;;20.92;41.53
80174;BME280;69497;41.708;44.804;2023-04-25T07:04:04;96550.72;;;20.84;41.46
80174;BME280;69497;41.708;44.804;2023-04-25T07:06:32;96565.94;;;21.12;41.55
80174;BME280;69497;41.708;44.804;2023-04-25T07:08:58;96555.50;;;21.24;40.70
80174;BME280;69497;41.708;44.804;2023-04-25T07:11:24;96546.69;;;21.42;40.31
80174;BME280;69497;41.708;44.804;2023-04-25T07:13:50;96556.28;;;21.69;39.90
80174;BME280;69497;41.708;44.804;2023-04-25T07:16:17;96559.84;;;21.90;39.28
80174;BME280;69497;41.708;44.804;2023-04-25T07:18:43;96557.25;;;22.29;38.66
80174;BME280;69497;41.708;44.804;2023-04-25T07:21:09;96557.88;;;22.15;38.39
80174;BME280;69497;41.708;44.804;2023-04-25T07:23:36;96554.44;;;22.49;37.37
80174;BME280;69497;41.708;44.804;2023-04-25T07:26:09;96564.78;;;22.77;37.32
80174;BME280;69497;41.708;44.804;2023-04-25T07:28:41;96548.66;;;22.45;36.79
80174;BME280;69497;41.708;44.804;2023-04-25T07:31:07;96555.59;;;23.35;35.61
80174;BME280;69497;41.708;44.804;2023-04-25T07:33:33;96555.09;;;23.28;36.56
80174;BME280;69497;41.708;44.804;2023-04-25T07:35:59;96539.22;;;23.49;35.52
80174;BME280;69497;41.708;44.804;2023-04-25T07:38:25;96534.53;;;23.49;35.08
80174;BME280;69497;41.708;44.804;2023-04-25T07:40:51;96524.31;;;24.07;34.30
80174;BME280;69497;41.708;44.804;2023-04-25T07:43:17;96530.66;;;24.78;33.64
80174;BME280;69497;41.708;44.804;2023-04-25T07:45:57;96539.09;;;24.63;33.93
80174;BME280;69497;41.708;44.804;2023-04-25T07:48:23;96534.53;;;24.54;34.56
80174;BME280;69497;41.708;44.804;2023-04-25T07:50:52;96529.28;;;24.52;34.51
80174;BME280;69497;41.708;44.804;2023-04-25T07:53:18;96527.66;;;24.93;34.21
80174;BME280;69497;41.708;44.804;2023-04-25T07:55:58;96514.94;;;25.11;34.17
80174;BME280;69497;41.708;44.804;2023-04-25T07:58:24;96528.00;;;26.07;32.58
80174;BME280;69497;41.708;44.804;2023-04-25T08:00:54;96527.19;;;26.20;31.67
80174;BME280;69497;41.708;44.804;2023-04-25T08:03:41;96525.41;;;25.97;31.86
80174;BME280;69497;41.708;44.804;2023-04-25T08:06:13;96515.75;;;27.03;30.48
80174;BME280;69497;41.708;44.804;2023-04-25T08:08:54;96511.16;;;27.20;29.61
80174;BME280;69497;41.708;44.804;2023-04-25T08:11:24;96509.53;;;27.86;29.39
80174;BME280;69497;41.708;44.804;2023-04-25T08:13:50;96512.53;;;27.67;29.39
80174;BME280;69497;41.708;44.804;2023-04-25T08:16:17;96520.66;;;28.47;28.52
80174;BME280;69497;41.708;44.804;2023-04-25T08:18:43;96513.78;;;28.44;28.47
80174;BME280;69497;41.708;44.804;2023-04-25T08:21:09;96508.69;;;28.94;27.33
80174;BME280;69497;41.708;44.804;2023-04-25T08:23:38;96503.50;;;29.35;26.69
80174;BME280;69497;41.708;44.804;2023-04-25T08:26:21;96505.84;;;28.60;27.92
80174;BME280;69497;41.708;44.804;2023-04-25T08:28:49;96504.19;;;26.19;31.12
80174;BME280;69497;41.708;44.804;2023-04-25T08:31:15;96488.44;;;25.42;32.19
80174;BME280;69497;41.708;44.804;2023-04-25T08:34:15;96493.19;;;27.18;29.57
80174;BME280;69497;41.708;44.804;2023-04-25T08:36:44;96478.41;;;28.36;28.01
80174;BME280;69497;41.708;44.804;2023-04-25T08:39:20;96482.94;;;28.63;27.30
80174;BME280;69497;41.708;44.804;2023-04-25T08:42:15;96483.19;;;29.26;26.55
80174;BME280;69497;41.708;44.804;2023-04-25T08:44:42;96478.22;;;29.91;26.11
80174;BME280;69497;41.708;44.804;2023-04-25T08:47:08;96477.94;;;30.22;26.37
80174;BME280;69497;41.708;44.804;2023-04-25T08:49:45;96482.97;;;30.75;24.84
80174;BME280;69497;41.708;44.804;2023-04-25T08:52:13;96477.06;;;30.76;24.89
80174;BME280;69497;41.708;44.804;2023-04-25T08:54:48;96478.47;;;30.53;25.48
80174;BME280;69497;41.708;44.804;2023-04-25T08:57:14;96473.78;;;31.24;24.85
80174;BME280;69497;41.708;44.804;2023-04-25T08:59:41;96488.72;;;31.49;24.52
80174;BME280;69497;41.708;44.804;2023-04-25T09:02:12;96477.72;;;31.97;23.76
80174;BME280;69497;41.708;44.804;2023-04-25T09:04:46;96458.66;;;31.78;23.80
80174;BME280;69497;41.708;44.804;2023-04-25T09:07:12;96464.56;;;31.97;23.85
80174;BME280;69497;41.708;44.804;2023-04-25T09:09:41;96473.53;;;31.91;23.54
80174;BME280;69497;41.708;44.804;2023-04-25T09:12:07;96459.06;;;31.89;24.15
80174;BME280;69497;41.708;44.804;2023-04-25T09:14:34;96446.44;;;32.28;23.72
80174;BME280;69497;41.708;44.804;2023-04-25T09:17:08;96448.66;;;32.82;22.94
80174;BME280;69497;41.708;44.804;2023-04-25T09:19:55;96453.09;;;32.83;22.61
80174;BME280;69497;41.708;44.804;2023-04-25T09:22:31;96452.44;;;33.66;22.05
80174;BME280;69497;41.708;44.804;2023-04-25T09:25:02;96445.41;;;32.56;23.19
80174;BME280;69497;41.708;44.804;2023-04-25T09:27:29;96456.66;;;31.05;25.17
80174;BME280;69497;41.708;44.804;2023-04-25T09:30:15;96446.50;;;30.51;25.66
80174;BME280;69497;41.708;44.804;2023-04-25T09:33:07;96443.31;;;29.85;26.57
80174;BME280;69497;41.708;44.804;2023-04-25T09:35:39;96446.97;;;28.83;27.84
80174;BME280;69497;41.708;44.804;2023-04-25T09:38:18;96431.72;;;30.13;26.44
80174;BME280;69497;41.708;44.804;2023-04-25T09:40:59;96437.22;;;28.47;27.94
80174;BME280;69497;41.708;44.804;2023-04-25T09:43:38;96429.78;;;27.55;29.70
80174;BME280;69497;41.708;44.804;2023-04-25T09:46:11;96422.69;;;26.34;30.98
80174;BME280;69497;41.708;44.804;2023-04-25T09:48:48;96424.66;;;25.93;31.80
80174;BME280;69497;41.708;44.804;2023-04-25T09:51:16;96432.91;;;25.52;32.31
80174;BME280;69497;41.708;44.804;2023-04-25T09:53:46;96436.38;;;25.58;32.83
80174;BME280;69497;41.708;44.804;2023-04-25T09:56:31;96424.13;;;25.31;33.12
80174;BME280;69497;41.708;44.804;2023-04-25T09:59:05;96406.78;;;26.39;31.90
80174;BME280;69497;41.708;44.804;2023-04-25T10:01:34;96409.13;;;29.51;27.64
80174;BME280;69497;41.708;44.804;2023-04-25T10:04:10;96405.75;;;30.58;25.50
80174;BME280;69497;41.708;44.804;2023-04-25T10:06:44;96402.00;;;29.87;26.31
80174;BME280;69497;41.708;44.804;2023-04-25T10:09:12;96401.50;;;30.23;25.80
80174;BME280;69497;41.708;44.804;2023-04-25T10:11:40;96398.84;;;31.26;24.33
80174;BME280;69497;41.708;44.804;2023-04-25T10:14:06;96379.25;;;30.93;24.97
80174;BME280;69497;41.708;44.804;2023-04-25T10:16:32;96394.81;;;31.80;23.41
80174;BME280;69497;41.708;44.804;2023-04-25T10:18:59;96391.31;;;32.40;22.67
80174;BME280;69497;41.708;44.804;2023-04-25T10:21:27;96397.72;;;32.65;21.68
80174;BME280;69497;41.708;44.804;2023-04-25T10:23:54;96388.47;;;33.28;21.26
80174;BME280;69497;41.708;44.804;2023-04-25T10:26:21;96378.91;;;33.72;20.49
80174;BME280;69497;41.708;44.804;2023-04-25T10:29:02;96395.00;;;33.32;20.36
80174;BME280;69497;41.708;44.804;2023-04-25T10:31:31;96390.88;;;31.81;21.83
80174;BME280;69497;41.708;44.804;2023-04-25T10:33:59;96396.09;;;31.71;21.82
80174;BME280;69497;41.708;44.804;2023-04-25T10:36:31;96377.69;;;31.70;22.33
80174;BME280;69497;41.708;44.804;2023-04-25T10:39:03;96377.28;;;30.94;23.34
80174;BME280;69497;41.708;44.804;2023-04-25T10:41:56;96380.66;;;30.79;22.92
80174;BME280;69497;41.708;44.804;2023-04-25T10:44:22;96371.19;;;31.78;22.16
80174;BME280;69497;41.708;44.804;2023-04-25T10:46:48;96375.66;;;32.63;21.27
80174;BME280;69497;41.708;44.804;2023-04-25T10:49:34;96372.75;;;33.51;20.20
80174;BME280;69497;41.708;44.804;2023-04-25T10:52:24;96377.50;;;33.78;19.76
80174;BME280;69497;41.708;44.804;2023-04-25T10:54:55;96375.47;;;33.08;19.79
80174;BME280;69497;41.708;44.804;2023-04-25T10:57:32;96379.78;;;33.33;19.38
80174;BME280;69497;41.708;44.804;2023-04-25T11:00:19;96367.78;;;33.76;18.91
80174;BME280;69497;41.708;44.804;2023-04-25T11:02:52;96364.00;;;34.62;18.15
80174;BME280;69497;41.708;44.804;2023-04-25T11:07:57;96373.44;;;34.38;18.39
80174;BME280;69497;41.708;44.804;2023-04-25T11:10:31;96375.94;;;35.28;18.29
80174;BME280;69497;41.708;44.804;2023-04-25T11:12:58;96374.50;;;34.33;18.60
80174;BME280;69497;41.708;44.804;2023-04-25T11:15:26;96377.63;;;35.13;18.24
80174;BME280;69497;41.708;44.804;2023-04-25T11:17:52;96383.16;;;34.75;18.44
80174;BME280;69497;41.708;44.804;2023-04-25T11:20:19;96385.25;;;34.78;18.11
80174;BME280;69497;41.708;44.804;2023-04-25T11:22:46;96371.78;;;35.03;18.54
80174;BME280;69497;41.708;44.804;2023-04-25T11:25:14;96378.81;;;34.43;18.46
80174;BME280;69497;41.708;44.804;2023-04-25T11:27:54;96379.91;;;33.37;18.52
80174;BME280;69497;41.708;44.804;2023-04-25T11:30:22;96375.25;;;32.89;19.53
80174;BME280;69497;41.708;44.804;2023-04-25T11:32:49;96372.59;;;33.91;18.62
80174;BME280;69497;41.708;44.804;2023-04-25T11:35:16;96376.22;;;33.91;18.59
80174;BME280;69497;41.708;44.804;2023-04-25T11:37:43;96371.13;;;32.47;19.60
80174;BME280;69497;41.708;44.804;2023-04-25T11:40:10;96371.84;;;31.09;20.91
80174;BME280;69497;41.708;44.804;2023-04-25T11:42:44;96363.59;;;30.22;22.28
80174;BME280;69497;41.708;44.804;2023-04-25T11:45:11;96365.78;;;29.07;23.28
80174;BME280;69497;41.708;44.804;2023-04-25T11:47:37;96368.09;;;30.15;22.55
80174;BME280;69497;41.708;44.804;2023-04-25T11:50:05;96371.25;;;31.57;20.63
80174;BME280;69497;41.708;44.804;2023-04-25T11:52:41;96369.63;;;31.56;20.44
80174;BME280;69497;41.708;44.804;2023-04-25T11:55:08;96369.38;;;32.06;20.03
80174;BME280;69497;41.708;44.804;2023-04-25T11:57:34;96361.72;;;33.30;18.82
80174;BME280;69497;41.708;44.804;2023-04-25T12:00:14;96362.41;;;33.00;18.87
80174;BME280;69497;41.708;44.804;2023-04-25T12:02:47;96372.16;;;33.18;18.64
80174;BME280;69497;41.708;44.804;2023-04-25T12:05:15;96354.94;;;33.04;18.31
80174;BME280;69497;41.708;44.804;2023-04-25T12:07:42;96349.31;;;33.44;18.40
80174;BME280;69497;41.708;44.804;2023-04-25T12:12:37;96330.34;;;34.46;17.72
80174;BME280;69497;41.708;44.804;2023-04-25T12:15:13;96346.03;;;34.00;17.62
80174;BME280;69497;41.708;44.804;2023-04-25T12:17:46;96342.84;;;33.15;18.07
80174;BME280;69497;41.708;44.804;2023-04-25T12:20:14;96348.31;;;33.24;18.37
80174;BME280;69497;41.708;44.804;2023-04-25T12:22:42;96337.97;;;33.40;17.42
80174;BME280;69497;41.708;44.804;2023-04-25T12:25:13;96329.09;;;33.10;17.54
80174;BME280;69497;41.708;44.804;2023-04-25T12:27:39;96343.88;;;33.23;17.93
80174;BME280;69497;41.708;44.804;2023-04-25T12:30:09;96336.06;;;32.89;17.88
80174;BME280;69497;41.708;44.804;2023-04-25T12:32:36;96345.59;;;32.88;17.93
80174;BME280;69497;41.708;44.804;2023-04-25T12:35:05;96342.81;;;32.48;17.23
80174;BME280;69497;41.708;44.804;2023-04-25T12:37:32;96336.16;;;32.29;16.86
80174;BME280;69497;41.708;44.804;2023-04-25T12:39:57;96343.75;;;32.40;16.71
80174;BME280;69497;41.708;44.804;2023-04-25T12:42:24;96344.03;;;32.75;16.94
80174;BME280;69497;41.708;44.804;2023-04-25T12:44:49;96343.91;;;32.71;17.13
80174;BME280;69497;41.708;44.804;2023-04-25T12:47:15;96349.00;;;32.81;17.12
80174;BME280;69497;41.708;44.804;2023-04-25T12:49:42;96342.91;;;33.74;16.86
80174;BME280;69497;41.708;44.804;2023-04-25T12:52:07;96354.22;;;32.31;17.74
80174;BME280;69497;41.708;44.804;2023-04-25T12:54:34;96358.06;;;32.39;17.90
80174;BME280;69497;41.708;44.804;2023-04-25T12:57:01;96334.91;;;31.45;18.09
80174;BME280;69497;41.708;44.804;2023-04-25T12:59:28;96343.63;;;31.44;19.27
80174;BME280;69497;41.708;44.804;2023-04-25T13:01:54;96340.16;;;31.47;19.41
80174;BME280;69497;41.708;44.804;2023-04-25T13:04:20;96344.84;;;31.67;18.97
80174;BME280;69497;41.708;44.804;2023-04-25T13:06:47;96334.38;;;30.98;19.44
80174;BME280;69497;41.708;44.804;2023-04-25T13:09:13;96338.44;;;30.80;20.02
80174;BME280;69497;41.708;44.804;2023-04-25T13:11:40;96324.09;;;30.49;20.69